Arlington, Minnesota
Current Conditions -  °F | °C
As of 4:33 AM on Friday 24 Oct 2014 (Local Time) from KGYL Reporting Station
Clear Clear  
Wind Chill: 50°   Ceiling: Unl
Heat Index: 50°   Visibility: 10mi
Dew Point: 43°   Wind: 7mph
Humidity: 77%   Direction: 150°SSE
Pressure: 29.89"   Gusts: NA
Location:  44.61°N, 94.08°W
Report Text: KGYL 240933Z AUTO 15006KT 10SM CLR 10/06 A2989 RMK AO2 T01020063
Loading
Personal Weather Stations






























Interactive Weather Map
Tropical Storm Tracking
New forecast layout! Learn more

10-Day Weather Forecast

Advertisements
Track Severe Weather on mobile